Time;durP1;ratioP1;P1;durP2;ratioP2;P2;SDS_P1;SDS_P2;PMS_P1;PMS_P2;Temp;Humidity;BMP_temperature;BMP_pressure;BME280_temperature;BME280_humidity;BME280_pressure;Samples;Min_cycle;Max_cycle;Signal;HPM_P1;HPM_P2
2022/01/11 00:00:15;;;;;;;85.30;23.30;;;1.20;99.90;;;;;;5054127;28;20545;-64
2022/01/11 00:02:44;;;;;;;68.57;23.73;;;1.20;99.90;;;;;;5048017;28;20246;-64
2022/01/11 00:05:50;;;;;;;60.07;22.77;;;1.20;99.90;;;;;;5041675;28;20194;-64
2022/01/11 00:08:04;;;;;;;70.27;23.07;;;1.20;99.90;;;;;;5031518;28;20581;-64
2022/01/11 00:10:34;;;;;;;59.63;23.07;;;1.20;99.90;;;;;;5049184;28;20221;-64
2022/01/11 00:13:00;;;;;;;59.13;22.90;;;1.20;99.90;;;;;;5051591;28;20186;-64
2022/01/11 00:15:27;;;;;;;63.07;25.57;;;1.10;99.90;;;;;;5043361;28;20233;-64
2022/01/11 00:17:54;;;;;;;54.23;27.63;;;1.10;99.90;;;;;;5033934;28;20199;-64
2022/01/11 00:20:21;;;;;;;56.50;22.60;;;1.10;99.90;;;;;;5041990;28;20177;-64
2022/01/11 00:25:33;;;;;;;53.33;22.73;;;1.00;99.90;;;;;;5049046;28;20525;-64
2022/01/11 00:27:59;;;;;;;78.77;25.00;;;0.90;99.90;;;;;;5053366;28;20590;-64
2022/01/11 00:30:31;;;;;;;61.00;24.00;;;1.00;99.90;;;;;;5044562;28;20183;-63
2022/01/11 00:32:59;;;;;;;68.83;23.87;;;1.00;99.90;;;;;;5033914;28;20202;-64
2022/01/11 00:35:29;;;;;;;54.00;22.50;;;1.00;99.90;;;;;;5048107;28;20194;-63
2022/01/11 00:37:55;;;;;;;50.97;21.53;;;0.90;99.90;;;;;;5042670;28;20175;-64
2022/01/11 00:40:21;;;;;;;37.53;20.97;;;0.90;99.90;;;;;;5036306;28;20178;-64
2022/01/11 00:42:47;;;;;;;46.97;23.13;;;0.80;99.90;;;;;;5052832;28;20716;-64
2022/01/11 00:45:13;;;;;;;49.77;22.83;;;0.80;99.90;;;;;;5050195;28;20191;-64
2022/01/11 00:47:40;;;;;;;51.60;21.47;;;0.80;99.90;;;;;;5039285;28;20270;-63
2022/01/11 00:50:07;;;;;;;44.17;21.93;;;0.80;99.90;;;;;;5033780;28;20168;-64
2022/01/11 00:52:33;;;;;;;46.30;20.50;;;0.80;99.90;;;;;;5052508;28;20652;-64
2022/01/11 00:54:59;;;;;;;46.93;21.17;;;0.80;99.90;;;;;;5051773;28;20199;-64
2022/01/11 00:57:25;;;;;;;48.20;21.43;;;0.80;99.90;;;;;;5042835;28;20198;-64
2022/01/11 00:59:51;;;;;;;62.10;23.57;;;0.80;99.90;;;;;;5032718;28;20202;-64
2022/01/11 01:02:16;;;;;;;53.27;23.87;;;0.80;99.90;;;;;;5051505;28;20206;-64
2022/01/11 01:04:42;;;;;;;66.90;22.77;;;0.80;99.90;;;;;;5052484;28;20659;-63
2022/01/11 01:07:07;;;;;;;59.47;24.73;;;0.90;99.90;;;;;;5034282;28;20221;-64
2022/01/11 01:09:45;;;;;;;60.83;21.77;;;0.80;99.90;;;;;;5037295;28;20228;-64
2022/01/11 01:12:11;;;;;;;44.97;22.17;;;0.90;99.90;;;;;;5052425;28;20185;-64
2022/01/11 01:14:36;;;;;;;63.00;21.93;;;0.90;99.90;;;;;;5046911;28;20179;-63
2022/01/11 01:17:02;;;;;;;54.33;24.10;;;0.90;99.90;;;;;;5049641;28;20611;-63
2022/01/11 01:19:28;;;;;;;63.90;25.27;;;0.80;99.90;;;;;;5047585;28;20274;-64
2022/01/11 01:21:55;;;;;;;56.97;24.67;;;0.90;99.90;;;;;;5032393;28;20282;-63
2022/01/11 01:24:21;;;;;;;67.90;25.73;;;0.80;99.90;;;;;;5044232;28;20613;-63
2022/01/11 01:26:48;;;;;;;70.73;25.50;;;0.80;99.90;;;;;;5033966;28;20226;-64
2022/01/11 01:29:14;;;;;;;57.43;23.87;;;0.80;99.90;;;;;;5042114;28;20273;-63
2022/01/11 01:31:40;;;;;;;60.80;25.40;;;0.90;99.90;;;;;;5051297;28;20163;-64
2022/01/11 01:34:06;;;;;;;63.20;26.27;;;0.90;99.90;;;;;;5041433;28;20509;-64
2022/01/11 01:36:32;;;;;;;64.67;26.97;;;0.90;99.90;;;;;;5038185;28;20203;-64
2022/01/11 01:38:58;;;;;;;62.27;26.53;;;0.90;99.90;;;;;;5032132;28;20175;-64
2022/01/11 01:41:25;;;;;;;66.03;26.10;;;1.00;99.90;;;;;;5048314;28;20179;-64
2022/01/11 01:43:55;;;;;;;68.43;26.87;;;1.00;99.90;;;;;;5047695;28;20193;-63
2022/01/11 01:46:22;;;;;;;74.23;27.07;;;1.00;99.90;;;;;;5070702;28;20210;-63
2022/01/11 01:48:48;;;;;;;58.77;24.43;;;1.00;99.90;;;;;;5032032;28;20575;-64
2022/01/11 01:51:14;;;;;;;44.57;23.03;;;1.00;99.90;;;;;;5033402;28;20205;-63
2022/01/11 01:53:47;;;;;;;63.50;23.40;;;1.00;99.90;;;;;;5031865;28;20221;-64
2022/01/11 01:56:13;;;;;;;56.57;24.43;;;1.00;99.90;;;;;;5035678;28;20207;-64
2022/01/11 01:58:42;;;;;;;54.40;23.30;;;1.00;99.90;;;;;;5031591;28;20186;-63
2022/01/11 02:01:08;;;;;;;53.07;25.97;;;1.00;99.90;;;;;;5032898;28;20270;-63
2022/01/11 02:03:38;;;;;;;46.90;22.90;;;1.00;99.90;;;;;;5049906;28;20285;-63
2022/01/11 02:06:09;;;;;;;46.47;22.87;;;1.00;99.90;;;;;;5047756;28;20194;-64
2022/01/11 02:08:35;;;;;;;50.73;23.43;;;1.00;99.90;;;;;;5051347;28;20170;-68
2022/01/11 02:11:01;;;;;;;55.70;26.17;;;0.90;99.90;;;;;;5036203;28;20180;-64
2022/01/11 02:13:27;;;;;;;49.17;26.80;;;0.90;99.90;;;;;;5036778;28;20179;-64
2022/01/11 02:15:54;;;;;;;63.03;27.37;;;0.90;99.90;;;;;;5038282;28;20194;-64
2022/01/11 02:18:23;;;;;;;55.37;25.87;;;1.00;99.90;;;;;;5040389;28;20640;-64
2022/01/11 02:20:50;;;;;;;52.50;25.40;;;1.00;99.90;;;;;;5032668;28;20168;-64
2022/01/11 02:23:17;;;;;;;49.50;25.50;;;1.00;99.90;;;;;;5051121;28;20203;-64
2022/01/11 02:25:43;;;;;;;65.50;25.47;;;1.00;99.90;;;;;;5040153;28;20213;-63
2022/01/11 02:28:14;;;;;;;49.43;22.57;;;1.00;99.90;;;;;;5031739;28;20532;-64
2022/01/11 02:30:40;;;;;;;52.00;25.23;;;1.00;99.90;;;;;;5032425;28;20175;-64
2022/01/11 02:33:14;;;;;;;55.27;26.37;;;0.90;99.90;;;;;;5044044;28;20256;-63
2022/01/11 02:35:40;;;;;;;52.17;23.30;;;0.90;99.90;;;;;;5036474;28;20286;-63
2022/01/11 02:38:05;;;;;;;50.27;24.13;;;0.90;99.90;;;;;;5044317;28;20661;-64
2022/01/11 02:40:31;;;;;;;62.10;26.07;;;0.90;99.90;;;;;;5031187;28;20182;-64
2022/01/11 02:42:57;;;;;;;47.63;25.63;;;0.90;99.90;;;;;;5039353;28;20203;-64
2022/01/11 02:45:22;;;;;;;60.90;27.03;;;0.90;99.90;;;;;;5031339;28;20195;-63
2022/01/11 02:47:49;;;;;;;67.70;26.90;;;0.90;99.90;;;;;;5038718;28;20178;-64
2022/01/11 02:50:16;;;;;;;56.80;26.97;;;0.90;99.90;;;;;;5042663;28;20611;-64
2022/01/11 02:52:42;;;;;;;65.57;27.30;;;0.90;99.90;;;;;;5030727;28;20203;-64
2022/01/11 02:55:11;;;;;;;46.00;24.10;;;0.90;99.90;;;;;;5032402;28;20203;-64
2022/01/11 02:57:37;;;;;;;57.57;25.17;;;0.90;99.90;;;;;;5035910;28;20191;-64
2022/01/11 03:00:09;;;;;;;58.53;26.30;;;0.90;99.90;;;;;;5031140;28;20679;-64
2022/01/11 03:02:35;;;;;;;59.07;27.20;;;0.90;99.90;;;;;;5031712;28;20199;-64
2022/01/11 03:05:03;;;;;;;60.83;27.83;;;0.80;99.90;;;;;;5031219;28;20253;-65
2022/01/11 03:07:29;;;;;;;50.60;25.17;;;0.80;99.90;;;;;;5041859;28;20171;-64
2022/01/11 03:10:08;;;;;;;54.40;26.50;;;0.90;99.90;;;;;;5038198;28;20190;-64
2022/01/11 03:12:33;;;;;;;63.50;25.10;;;0.90;99.90;;;;;;5044236;28;20213;-64
2022/01/11 03:14:59;;;;;;;66.33;25.57;;;0.90;99.90;;;;;;5049305;28;20223;-64
2022/01/11 03:17:26;;;;;;;57.83;25.53;;;0.80;99.90;;;;;;5053380;28;20705;-64
2022/01/11 03:19:53;;;;;;;64.37;26.73;;;0.90;99.90;;;;;;5050675;28;20171;-64
2022/01/11 03:22:19;;;;;;;58.77;26.97;;;0.90;99.90;;;;;;5034334;28;20285;-64
2022/01/11 03:24:45;;;;;;;60.40;28.77;;;0.90;99.90;;;;;;5037442;28;20334;-64
2022/01/11 03:27:10;;;;;;;67.50;26.10;;;0.90;99.90;;;;;;5054622;28;20613;-63
2022/01/11 03:29:38;;;;;;;66.90;26.50;;;0.90;99.90;;;;;;5052444;28;20171;-64
2022/01/11 03:32:07;;;;;;;63.00;28.80;;;0.90;99.90;;;;;;5040516;28;20636;-65
2022/01/11 03:34:33;;;;;;;65.60;25.63;;;1.00;99.90;;;;;;5039070;28;20182;-64
2022/01/11 03:36:59;;;;;;;52.70;26.60;;;0.90;99.90;;;;;;5039048;28;20182;-64
2022/01/11 03:39:26;;;;;;;60.27;26.77;;;0.90;99.90;;;;;;5054305;28;20181;-63
2022/01/11 03:41:52;;;;;;;69.40;28.17;;;0.80;99.90;;;;;;5048934;28;20214;-64
2022/01/11 03:44:18;;;;;;;58.77;28.53;;;0.90;99.90;;;;;;5034106;28;20172;-64
2022/01/11 03:46:43;;;;;;;55.57;26.90;;;0.90;99.90;;;;;;5052726;28;20691;-64
2022/01/11 03:49:09;;;;;;;75.00;28.77;;;0.90;99.90;;;;;;5052268;28;20704;-64
2022/01/11 03:51:38;;;;;;;55.10;26.37;;;1.00;99.90;;;;;;5050726;28;20210;-64
2022/01/11 03:54:14;;;;;;;55.33;26.37;;;0.90;99.90;;;;;;5050486;28;20174;-64
2022/01/11 03:56:40;;;;;;;63.57;25.73;;;0.90;99.90;;;;;;5051641;28;20260;-64
2022/01/11 03:59:06;;;;;;;58.63;26.67;;;0.90;99.90;;;;;;5079009;22;20632;-65
2022/01/11 04:01:36;;;;;;;65.20;26.77;;;0.90;99.90;;;;;;5055517;28;20182;-66
2022/01/11 04:04:02;;;;;;;59.00;24.10;;;0.80;99.90;;;;;;5054504;28;20558;-66
2022/01/11 04:06:28;;;;;;;47.70;25.90;;;0.90;99.90;;;;;;5054050;28;20179;-66
2022/01/11 04:08:54;;;;;;;46.77;25.30;;;0.80;99.90;;;;;;5054658;28;20190;-66
2022/01/11 04:11:20;;;;;;;57.03;25.13;;;0.90;99.90;;;;;;5036588;28;20172;-66
2022/01/11 04:13:46;;;;;;;54.73;25.63;;;0.90;99.90;;;;;;5053937;28;20305;-66
2022/01/11 04:16:13;;;;;;;54.70;25.00;;;0.90;99.90;;;;;;5046830;28;20175;-66
2022/01/11 04:18:38;;;;;;;59.37;27.57;;;0.80;99.90;;;;;;5054057;28;20201;-67
2022/01/11 04:21:04;;;;;;;56.87;24.30;;;0.90;99.90;;;;;;5038607;28;20613;-66
2022/01/11 04:23:31;;;;;;;50.63;27.10;;;0.90;99.90;;;;;;5034230;28;20555;-66
2022/01/11 04:25:57;;;;;;;55.23;26.87;;;0.90;99.90;;;;;;5037398;28;20510;-67
2022/01/11 04:28:23;;;;;;;50.40;24.47;;;0.80;99.90;;;;;;5034686;28;20206;-66
2022/01/11 04:30:59;;;;;;;54.20;25.50;;;0.80;99.90;;;;;;5050033;28;20238;-66
2022/01/11 04:33:27;;;;;;;52.63;23.67;;;0.70;99.90;;;;;;5050314;28;20179;-66
2022/01/11 04:35:53;;;;;;;71.43;26.13;;;0.70;99.90;;;;;;5035338;28;20550;-66
2022/01/11 04:38:24;;;;;;;78.10;27.07;;;0.70;99.90;;;;;;5037347;28;20219;-66
2022/01/11 04:40:50;;;;;;;64.00;27.17;;;0.70;99.90;;;;;;5054592;28;20199;-67
2022/01/11 04:43:16;;;;;;;75.70;25.50;;;0.70;99.90;;;;;;5036181;28;20222;-67
2022/01/11 04:45:41;;;;;;;63.03;27.00;;;0.80;99.90;;;;;;5039077;28;20178;-67
2022/01/11 04:48:07;;;;;;;62.83;26.60;;;0.80;99.90;;;;;;5042697;28;20195;-66
2022/01/11 04:50:34;;;;;;;77.57;30.53;;;0.80;99.90;;;;;;5036619;28;20659;-67
2022/01/11 04:53:00;;;;;;;73.70;29.17;;;0.80;99.90;;;;;;5053587;28;20174;-67
2022/01/11 04:55:27;;;;;;;75.50;27.63;;;0.80;99.90;;;;;;5044897;28;20180;-67
2022/01/11 04:57:52;;;;;;;61.77;27.70;;;0.80;99.90;;;;;;5033503;28;20211;-66
2022/01/11 05:00:21;;;;;;;72.10;26.40;;;0.80;99.90;;;;;;5040520;28;20186;-67
2022/01/11 05:02:47;;;;;;;79.13;30.60;;;0.80;99.90;;;;;;5040501;28;20562;-66
2022/01/11 05:05:14;;;;;;;85.23;28.00;;;0.90;99.90;;;;;;5033252;28;20191;-66
2022/01/11 05:07:44;;;;;;;98.77;27.57;;;0.90;99.90;;;;;;5042547;28;20682;-65
2022/01/11 05:10:10;;;;;;;75.07;26.90;;;0.90;99.90;;;;;;5048100;28;20171;-67
2022/01/11 05:12:38;;;;;;;71.17;25.80;;;0.80;99.90;;;;;;5037513;28;20179;-66
2022/01/11 05:15:08;;;;;;;59.17;26.50;;;0.90;99.90;;;;;;5036757;28;20218;-66
2022/01/11 05:17:34;;;;;;;61.97;24.83;;;0.80;99.90;;;;;;5041657;28;20195;-65
2022/01/11 05:20:00;;;;;;;53.03;25.23;;;0.80;99.90;;;;;;5033111;28;20713;-64
2022/01/11 05:22:25;;;;;;;63.60;25.50;;;0.80;99.90;;;;;;5051434;28;20202;-67
2022/01/11 05:24:51;;;;;;;59.97;27.53;;;0.80;99.90;;;;;;5051776;28;20174;-66
2022/01/11 05:27:17;;;;;;;59.40;25.80;;;0.80;99.90;;;;;;5033555;28;20175;-66
2022/01/11 05:29:42;;;;;;;61.83;24.73;;;0.80;99.90;;;;;;5032892;28;20175;-64
2022/01/11 05:32:08;;;;;;;57.67;25.83;;;0.80;99.90;;;;;;5043733;28;20171;-65
2022/01/11 05:34:34;;;;;;;68.47;26.57;;;0.80;99.90;;;;;;5044641;28;20183;-65
2022/01/11 05:36:59;;;;;;;82.00;27.17;;;0.80;99.90;;;;;;5050716;28;20662;-64
2022/01/11 05:39:25;;;;;;;53.70;23.13;;;0.80;99.90;;;;;;5044998;28;20181;-64
2022/01/11 05:41:51;;;;;;;85.93;27.93;;;0.80;99.90;;;;;;5045294;28;20213;-65
2022/01/11 05:44:17;;;;;;;71.10;21.17;;;0.80;99.90;;;;;;5038003;28;20548;-64
2022/01/11 05:46:42;;;;;;;58.47;24.33;;;0.80;99.90;;;;;;5036530;28;20755;-66
2022/01/11 05:49:08;;;;;;;49.33;22.17;;;0.70;99.90;;;;;;5031800;28;20222;-66
2022/01/11 05:51:33;;;;;;;53.37;24.23;;;0.70;99.90;;;;;;5032316;28;20698;-64
2022/01/11 05:53:59;;;;;;;63.10;23.67;;;0.70;99.90;;;;;;5051535;28;20249;-65
2022/01/11 05:56:25;;;;;;;49.10;23.17;;;0.70;99.90;;;;;;5044114;28;20171;-65
2022/01/11 05:58:52;;;;;;;43.83;23.37;;;0.70;99.90;;;;;;5040187;28;20709;-65
2022/01/11 06:01:18;;;;;;;40.87;22.53;;;0.70;99.90;;;;;;5043559;28;20175;-64
2022/01/11 06:03:43;;;;;;;51.47;22.33;;;0.60;99.90;;;;;;5032349;28;20572;-65
2022/01/11 06:06:09;;;;;;;53.80;22.40;;;0.60;99.90;;;;;;5032969;28;20171;-65
2022/01/11 06:08:35;;;;;;;54.53;23.47;;;0.60;99.90;;;;;;5035661;28;20206;-65
2022/01/11 06:11:00;;;;;;;46.50;21.90;;;0.60;99.90;;;;;;5040227;28;20229;-65
2022/01/11 06:13:26;;;;;;;56.13;23.73;;;0.60;99.90;;;;;;5031322;28;20183;-65
2022/01/11 06:15:52;;;;;;;72.47;23.70;;;0.60;99.90;;;;;;5044380;28;20190;-64
2022/01/11 06:18:18;;;;;;;69.17;24.67;;;0.50;99.90;;;;;;5050075;28;20199;-65
2022/01/11 06:20:44;;;;;;;54.70;22.53;;;0.50;99.90;;;;;;5034519;28;20184;-65
2022/01/11 06:23:09;;;;;;;62.43;23.07;;;0.50;99.90;;;;;;5046499;28;20691;-65
2022/01/11 06:25:36;;;;;;;50.40;22.77;;;0.60;99.90;;;;;;5049225;28;20210;-65
2022/01/11 06:28:02;;;;;;;63.33;24.50;;;0.60;99.90;;;;;;5031431;28;20611;-65
2022/01/11 06:30:28;;;;;;;70.97;24.33;;;0.60;99.90;;;;;;5031905;28;20174;-65
2022/01/11 06:32:55;;;;;;;48.83;20.57;;;0.60;99.90;;;;;;5050912;28;20175;-66
2022/01/11 06:35:22;;;;;;;59.27;24.50;;;0.50;99.90;;;;;;5045907;28;20218;-66
2022/01/11 06:37:48;;;;;;;63.43;22.70;;;0.50;99.90;;;;;;5040507;28;20226;-66
2022/01/11 06:40:17;;;;;;;52.03;23.60;;;0.50;99.90;;;;;;5042642;28;20667;-65
2022/01/11 06:42:46;;;;;;;57.17;25.40;;;0.50;99.90;;;;;;5032593;28;20203;-64
2022/01/11 06:45:13;;;;;;;52.57;23.40;;;0.50;99.90;;;;;;5043015;28;20186;-64
2022/01/11 06:47:39;;;;;;;63.47;23.90;;;0.40;99.90;;;;;;5050425;28;20195;-65
2022/01/11 06:50:05;;;;;;;51.23;23.40;;;0.40;99.90;;;;;;5054322;28;20185;-64
2022/01/11 06:52:31;;;;;;;56.20;22.73;;;0.30;99.90;;;;;;5038702;28;20183;-65
2022/01/11 06:54:56;;;;;;;47.47;22.83;;;0.30;99.90;;;;;;5034955;28;20172;-64
2022/01/11 06:57:24;;;;;;;58.20;23.87;;;0.40;99.90;;;;;;5046032;28;20267;-64
2022/01/11 06:59:50;;;;;;;65.53;24.37;;;0.40;99.90;;;;;;5052810;28;20190;-64
2022/01/11 07:02:15;;;;;;;82.07;24.87;;;0.40;99.90;;;;;;5054445;28;20203;-65
2022/01/11 07:04:41;;;;;;;63.17;23.53;;;0.40;99.90;;;;;;5043157;28;20221;-65
2022/01/11 07:07:07;;;;;;;76.47;24.07;;;0.40;99.90;;;;;;5035034;28;20232;-65
2022/01/11 07:09:34;;;;;;;71.60;22.47;;;0.40;99.90;;;;;;5044689;28;20278;-65
2022/01/11 07:12:00;;;;;;;62.90;22.10;;;0.50;99.90;;;;;;5054452;28;20178;-65
2022/01/11 07:14:25;;;;;;;56.57;23.20;;;0.40;99.90;;;;;;5045601;28;20179;-65
2022/01/11 07:16:51;;;;;;;62.23;24.00;;;0.40;99.90;;;;;;5034382;28;20179;-65
2022/01/11 07:19:18;;;;;;;64.47;24.43;;;0.40;99.90;;;;;;5037454;28;20207;-66
2022/01/11 07:21:44;;;;;;;56.37;26.83;;;0.40;99.90;;;;;;5043241;28;20183;-65
2022/01/11 07:24:11;;;;;;;59.20;23.30;;;0.40;99.90;;;;;;5032957;28;20172;-66
2022/01/11 07:26:37;;;;;;;52.30;24.93;;;0.50;99.90;;;;;;5052154;28;20178;-66
2022/01/11 07:29:05;;;;;;;52.90;23.57;;;0.50;99.90;;;;;;5054129;28;20195;-65
2022/01/11 07:31:31;;;;;;;58.03;23.10;;;0.50;99.90;;;;;;5052868;28;20174;-66
2022/01/11 07:33:57;;;;;;;42.33;21.57;;;0.50;99.90;;;;;;5053575;28;20273;-66
2022/01/11 07:36:23;;;;;;;57.27;23.97;;;0.50;99.90;;;;;;5054323;28;20206;-64
2022/01/11 07:38:50;;;;;;;59.30;22.47;;;0.50;99.90;;;;;;5053616;28;20204;-66
2022/01/11 07:41:17;;;;;;;64.13;26.00;;;0.40;99.90;;;;;;5054079;28;20171;-65
2022/01/11 07:43:42;;;;;;;51.50;22.60;;;0.40;99.90;;;;;;5053740;28;20199;-66
2022/01/11 07:46:08;;;;;;;63.73;23.60;;;0.40;99.90;;;;;;5053241;28;20231;-66
2022/01/11 07:48:34;;;;;;;57.80;21.37;;;0.30;99.90;;;;;;5053655;28;20196;-65
2022/01/11 07:50:59;;;;;;;53.10;23.43;;;0.40;99.90;;;;;;5037634;28;20182;-66
2022/01/11 07:53:25;;;;;;;50.37;23.13;;;0.40;99.90;;;;;;5033130;28;20180;-66
2022/01/11 07:55:50;;;;;;;53.80;25.57;;;0.40;99.90;;;;;;5045833;28;20305;-65
2022/01/11 07:58:16;;;;;;;53.10;24.77;;;0.30;99.90;;;;;;5033749;28;20207;-66
2022/01/11 08:00:42;;;;;;;66.50;26.67;;;0.30;99.90;;;;;;5032592;28;20657;-66
2022/01/11 08:03:08;;;;;;;74.97;27.80;;;0.30;99.90;;;;;;5032230;28;20282;-66
2022/01/11 08:05:34;;;;;;;52.77;25.00;;;0.40;99.90;;;;;;5044310;28;20214;-66
2022/01/11 08:08:00;;;;;;;54.43;24.23;;;0.40;99.90;;;;;;5053673;28;20195;-65
2022/01/11 08:10:25;;;;;;;62.17;25.83;;;0.40;99.90;;;;;;5044538;28;20711;-66
2022/01/11 08:12:51;;;;;;;61.80;27.27;;;0.40;99.90;;;;;;5033018;28;20171;-65
2022/01/11 08:15:17;;;;;;;59.03;25.93;;;0.40;99.90;;;;;;5040533;28;20183;-67
2022/01/11 08:17:43;;;;;;;54.27;25.40;;;0.40;99.90;;;;;;5053411;28;20256;-67
2022/01/11 08:20:09;;;;;;;55.47;24.87;;;0.50;99.90;;;;;;5048488;28;20175;-67
2022/01/11 08:22:35;;;;;;;59.80;25.07;;;0.50;99.90;;;;;;5033041;28;20253;-67
2022/01/11 08:25:01;;;;;;;58.97;25.23;;;0.60;99.90;;;;;;5037571;28;20523;-66
2022/01/11 08:27:26;;;;;;;58.83;25.53;;;0.50;99.90;;;;;;5033209;28;20194;-65
2022/01/11 08:29:52;;;;;;;60.87;27.40;;;0.50;99.90;;;;;;5039260;28;20202;-66
2022/01/11 08:32:18;;;;;;;49.87;24.00;;;0.50;99.90;;;;;;5049308;28;20258;-65
2022/01/11 08:34:43;;;;;;;65.80;26.07;;;0.50;99.90;;;;;;5043166;28;20183;-66
2022/01/11 08:37:10;;;;;;;66.40;28.40;;;0.40;99.90;;;;;;5053244;28;20174;-66
2022/01/11 08:39:36;;;;;;;65.77;27.70;;;0.40;99.90;;;;;;5052355;28;20186;-65
2022/01/11 08:42:02;;;;;;;81.63;25.63;;;0.40;99.90;;;;;;5052908;28;20274;-65
2022/01/11 08:44:28;;;;;;;89.13;25.43;;;0.40;99.90;;;;;;5052819;28;20163;-66
2022/01/11 08:46:54;;;;;;;54.97;21.37;;;0.40;99.90;;;;;;5052820;28;20174;-68
2022/01/11 08:49:21;;;;;;;61.50;25.97;;;0.40;99.90;;;;;;5052755;28;20182;-67
2022/01/11 08:51:47;;;;;;;51.77;23.60;;;0.40;99.90;;;;;;5052774;28;20174;-67
2022/01/11 08:54:13;;;;;;;58.67;24.40;;;0.50;99.90;;;;;;5051774;28;20609;-66
2022/01/11 08:56:40;;;;;;;73.67;26.60;;;0.60;99.90;;;;;;5052695;28;20166;-66
2022/01/11 08:59:06;;;;;;;50.17;22.47;;;0.60;99.90;;;;;;5052665;28;20757;-65
2022/01/11 09:01:34;;;;;;;74.97;23.97;;;0.70;99.90;;;;;;5052636;28;20224;-65
2022/01/11 09:04:00;;;;;;;63.93;21.73;;;0.70;99.90;;;;;;5040684;28;20206;-67
2022/01/11 09:06:26;;;;;;;58.27;23.77;;;0.70;99.90;;;;;;5047272;28;20206;-65
2022/01/11 09:08:51;;;;;;;62.60;25.03;;;0.80;99.90;;;;;;5040034;28;20644;-67
2022/01/11 09:11:17;;;;;;;57.33;23.00;;;0.80;99.90;;;;;;5036842;28;20678;-66
2022/01/11 09:13:43;;;;;;;85.13;24.57;;;0.90;99.90;;;;;;5051175;28;20181;-67
2022/01/11 09:16:11;;;;;;;54.70;24.60;;;0.90;99.90;;;;;;5052671;28;20190;-67
2022/01/11 09:18:37;;;;;;;64.43;27.83;;;0.90;99.90;;;;;;5052292;28;20217;-66
2022/01/11 09:21:04;;;;;;;71.20;27.07;;;0.90;99.90;;;;;;5051192;28;20175;-66
2022/01/11 09:23:30;;;;;;;64.73;24.77;;;0.90;99.90;;;;;;5051311;28;20545;-67
2022/01/11 09:25:56;;;;;;;64.83;26.27;;;0.90;99.90;;;;;;5052262;28;20170;-67
2022/01/11 09:28:23;;;;;;;52.60;24.10;;;0.90;99.90;;;;;;5052304;28;20190;-65
2022/01/11 09:30:50;;;;;;;61.50;26.07;;;0.90;99.90;;;;;;5051861;28;20729;-65
2022/01/11 09:33:16;;;;;;;69.97;25.27;;;1.00;99.90;;;;;;5051995;28;20257;-66
2022/01/11 09:35:42;;;;;;;71.87;25.50;;;1.00;99.90;;;;;;5052029;28;20301;-66
2022/01/11 09:38:08;;;;;;;68.50;26.17;;;1.00;99.90;;;;;;5052110;28;20573;-66
2022/01/11 09:40:34;;;;;;;66.20;25.93;;;1.00;99.90;;;;;;5052487;28;20182;-66
2022/01/11 09:42:59;;;;;;;61.57;24.43;;;1.00;99.90;;;;;;5051594;28;20561;-65
2022/01/11 09:45:26;;;;;;;67.70;27.37;;;1.00;99.90;;;;;;5051987;28;20623;-65
2022/01/11 09:47:52;;;;;;;71.33;27.53;;;1.00;99.90;;;;;;5051803;28;20198;-65
2022/01/11 09:50:18;;;;;;;82.43;28.40;;;1.10;99.90;;;;;;5050590;28;20538;-66
2022/01/11 09:52:45;;;;;;;72.37;25.53;;;1.10;99.90;;;;;;5042368;28;20171;-65
2022/01/11 09:55:13;;;;;;;69.30;27.03;;;1.10;99.90;;;;;;5043925;28;20190;-66
2022/01/11 09:57:40;;;;;;;69.17;26.87;;;1.20;99.90;;;;;;5059002;22;20198;-67
2022/01/11 10:00:09;;;;;;;64.87;24.67;;;1.20;99.90;;;;;;5071816;28;20185;-67
2022/01/11 10:02:34;;;;;;;59.97;25.10;;;1.30;99.90;;;;;;5070775;28;20209;-68
2022/01/11 10:05:05;;;;;;;62.10;24.97;;;1.30;99.90;;;;;;5071913;28;20174;-66
2022/01/11 10:07:40;;;;;;;62.20;26.07;;;1.30;99.90;;;;;;5069487;28;20170;-66
2022/01/11 10:10:21;;;;;;;66.80;28.20;;;1.40;99.90;;;;;;5055597;28;20181;-65
2022/01/11 10:12:49;;;;;;;62.07;28.67;;;1.50;99.90;;;;;;5057487;28;20178;-67
2022/01/11 10:15:15;;;;;;;73.80;31.60;;;1.60;99.90;;;;;;5071388;28;20162;-66
2022/01/11 10:17:43;;;;;;;73.87;26.00;;;1.60;99.90;;;;;;5064764;28;20752;-68
2022/01/11 10:20:16;;;;;;;59.73;28.97;;;1.70;99.90;;;;;;5051284;28;20178;-66
2022/01/11 10:22:46;;;;;;;73.30;27.40;;;1.70;99.90;;;;;;5055558;28;20201;-68
2022/01/11 10:25:12;;;;;;;56.50;26.83;;;1.70;99.90;;;;;;5070056;28;20174;-67
2022/01/11 10:27:38;;;;;;;71.07;27.97;;;1.80;99.90;;;;;;5067309;28;20241;-68
2022/01/11 10:30:13;;;;;;;76.57;27.30;;;1.80;99.90;;;;;;5051420;28;20245;-65
2022/01/11 10:32:45;;;;;;;63.70;25.43;;;1.90;99.90;;;;;;5053203;28;20178;-65
2022/01/11 10:35:23;;;;;;;70.10;25.67;;;2.00;99.90;;;;;;5070053;28;20557;-67
2022/01/11 10:37:51;;;;;;;53.20;26.20;;;2.00;99.90;;;;;;5066481;28;20191;-66
2022/01/11 10:40:20;;;;;;;73.23;25.63;;;2.00;99.90;;;;;;5050261;28;20224;-66
2022/01/11 10:42:48;;;;;;;64.57;26.40;;;2.10;99.90;;;;;;5052345;28;20198;-65
2022/01/11 10:45:24;;;;;;;66.90;27.10;;;2.20;99.90;;;;;;5071197;28;20528;-66
2022/01/11 10:47:55;;;;;;;71.23;27.60;;;2.30;99.90;;;;;;5067366;28;20191;-67
2022/01/11 10:50:37;;;;;;;71.77;26.73;;;2.40;99.90;;;;;;5049817;28;20178;-67
2022/01/11 10:53:18;;;;;;;56.40;25.83;;;2.50;99.90;;;;;;5055152;28;20219;-65
2022/01/11 10:55:48;;;;;;;63.90;25.60;;;2.40;99.90;;;;;;5071474;28;20213;-66
2022/01/11 10:58:14;;;;;;;58.10;25.87;;;2.40;99.90;;;;;;5064964;28;20210;-64
2022/01/11 11:00:42;;;;;;;73.70;28.13;;;2.40;99.90;;;;;;5049572;28;20175;-65
2022/01/11 11:03:14;;;;;;;71.67;27.37;;;2.40;99.90;;;;;;5054336;28;20205;-65
2022/01/11 11:05:41;;;;;;;65.70;27.43;;;2.40;99.90;;;;;;5069461;28;20171;-65
2022/01/11 11:08:23;;;;;;;57.90;27.77;;;2.40;99.90;;;;;;5066510;28;20226;-65
2022/01/11 11:10:50;;;;;;;69.47;26.43;;;2.40;99.90;;;;;;5050668;28;20475;-64
2022/01/11 11:13:35;;;;;;;68.00;29.73;;;2.40;99.90;;;;;;5053207;28;20182;-65
2022/01/11 11:16:21;;;;;;;67.50;28.17;;;2.50;99.90;;;;;;5070887;28;20174;-64
2022/01/11 11:18:57;;;;;;;67.63;28.63;;;2.60;99.90;;;;;;5062266;28;20210;-68
2022/01/11 11:21:36;;;;;;;58.33;29.23;;;2.50;99.90;;;;;;5050300;28;20266;-65
2022/01/11 11:24:04;;;;;;;72.93;28.63;;;2.40;99.90;;;;;;5059524;28;20247;-65
2022/01/11 11:26:33;;;;;;;73.93;29.40;;;2.40;99.90;;;;;;5066503;28;20174;-64
2022/01/11 11:28:59;;;;;;;68.90;28.87;;;2.50;99.90;;;;;;5070782;28;20194;-64
2022/01/11 11:31:25;;;;;;;69.27;29.60;;;2.60;99.90;;;;;;5067121;28;20167;-67
2022/01/11 11:33:51;;;;;;;78.43;31.10;;;2.80;99.90;;;;;;5053787;28;20202;-65
2022/01/11 11:36:18;;;;;;;69.60;26.63;;;2.80;99.90;;;;;;5059614;28;20178;-64
2022/01/11 11:38:59;;;;;;;76.80;30.23;;;2.90;99.90;;;;;;5074049;28;20567;-65
2022/01/11 11:41:27;;;;;;;70.40;29.50;;;3.00;99.90;;;;;;5067792;28;20653;-65
2022/01/11 11:44:15;;;;;;;57.03;26.30;;;3.00;99.90;;;;;;5053695;28;20210;-65
2022/01/11 11:46:46;;;;;;;64.27;26.50;;;3.10;99.90;;;;;;5052557;28;20699;-65
2022/01/11 11:49:17;;;;;;;72.97;28.10;;;3.00;99.90;;;;;;5053738;28;20182;-65
2022/01/11 11:51:44;;;;;;;70.97;30.70;;;3.00;99.90;;;;;;5053771;28;20181;-65
2022/01/11 11:54:12;;;;;;;81.37;29.90;;;3.10;99.90;;;;;;5051896;28;20268;-65
2022/01/11 11:56:38;;;;;;;68.40;28.37;;;3.10;99.90;;;;;;5072680;28;20174;-64
2022/01/11 11:59:07;;;;;;;69.30;27.73;;;3.20;99.90;;;;;;5072078;28;20654;-65
2022/01/11 12:01:42;;;;;;;75.90;29.43;;;3.30;99.90;;;;;;5055002;28;20271;-65
2022/01/11 12:04:11;;;;;;;71.17;28.40;;;3.40;99.90;;;;;;5053346;28;20722;-65
2022/01/11 12:06:37;;;;;;;69.23;31.00;;;3.40;99.90;;;;;;5057802;28;20171;-65
2022/01/11 12:09:15;;;;;;;64.00;26.10;;;3.50;99.90;;;;;;5053269;28;20317;-64
2022/01/11 12:11:46;;;;;;;84.27;31.07;;;3.60;99.90;;;;;;5053563;28;20185;-65
2022/01/11 12:14:35;;;;;;;60.70;29.80;;;3.50;99.90;;;;;;5051869;28;20183;-66
2022/01/11 12:17:17;;;;;;;70.80;30.57;;;3.50;99.90;;;;;;5053448;28;20175;-65
2022/01/11 12:19:47;;;;;;;78.37;29.67;;;3.50;99.90;;;;;;5053824;28;20285;-64
2022/01/11 12:22:15;;;;;;;74.93;30.53;;;3.60;99.90;;;;;;5073295;28;20193;-66
2022/01/11 12:24:46;;;;;;;63.73;29.77;;;3.80;99.90;;;;;;5072888;28;20177;-64
2022/01/11 12:27:15;;;;;;;64.50;28.70;;;4.00;99.90;;;;;;5053059;28;20544;-66
2022/01/11 12:29:56;;;;;;;65.93;28.60;;;4.10;99.90;;;;;;5053052;28;20190;-65
2022/01/11 12:32:23;;;;;;;63.53;30.33;;;4.20;99.90;;;;;;5052905;28;20591;-65
2022/01/11 12:34:51;;;;;;;73.03;30.47;;;4.00;99.90;;;;;;5052839;28;20171;-65
2022/01/11 12:37:26;;;;;;;63.53;30.00;;;4.10;99.90;;;;;;5072929;28;20231;-66
2022/01/11 12:40:05;;;;;;;65.10;28.67;;;4.20;99.90;;;;;;5070403;28;20582;-66